Time;durP1;ratioP1;P1;durP2;ratioP2;P2;SDS_P1;SDS_P2;PMS_P1;PMS_P2;Temp;Humidity;BMP_temperature;BMP_pressure;BME280_temperature;BME280_humidity;BME280_pressure;Samples;Min_cycle;Max_cycle;Signal;HPM_P1;HPM_P2
2023/09/25 00:00:45;;;;;;;5.03;1.92;;;12.60;74.70;;;;;;5080316;28;20485;-64
2023/09/25 00:03:11;;;;;;;4.40;2.28;;;12.70;74.70;;;;;;5072907;28;20057;-64
2023/09/25 00:05:37;;;;;;;7.28;2.40;;;12.70;74.60;;;;;;5088627;28;20128;-64
2023/09/25 00:08:03;;;;;;;6.55;2.22;;;12.70;74.50;;;;;;5082110;28;20097;-64
2023/09/25 00:10:31;;;;;;;4.03;2.40;;;12.70;74.60;;;;;;5079269;28;20040;-64
2023/09/25 00:12:57;;;;;;;4.07;2.45;;;12.70;74.40;;;;;;5080461;28;20048;-64
2023/09/25 00:15:23;;;;;;;5.80;2.00;;;12.80;74.70;;;;;;5089776;28;20043;-64
2023/09/25 00:17:49;;;;;;;5.40;2.53;;;12.70;74.60;;;;;;5085604;28;20502;-64
2023/09/25 00:20:17;;;;;;;4.38;2.00;;;12.70;74.60;;;;;;5068861;28;20123;-64
2023/09/25 00:22:43;;;;;;;4.25;2.10;;;12.70;74.50;;;;;;5074542;28;20427;-65
2023/09/25 00:25:09;;;;;;;2.90;1.92;;;12.80;74.60;;;;;;5077397;28;20094;-64
2023/09/25 00:27:35;;;;;;;4.10;2.30;;;12.80;74.40;;;;;;5090049;28;20040;-64
2023/09/25 00:30:04;;;;;;;4.47;2.20;;;12.80;74.40;;;;;;5090044;28;20050;-65
2023/09/25 00:32:29;;;;;;;5.78;2.40;;;12.80;74.40;;;;;;5088287;28;20056;-64
2023/09/25 00:34:55;;;;;;;3.35;1.60;;;12.80;74.50;;;;;;5089135;28;20044;-64
2023/09/25 00:37:21;;;;;;;3.97;2.10;;;12.80;74.30;;;;;;5073470;28;20488;-64
2023/09/25 00:39:47;;;;;;;4.10;2.05;;;12.80;74.40;;;;;;5077186;28;20048;-64
2023/09/25 00:42:13;;;;;;;4.63;2.08;;;12.80;74.50;;;;;;5088972;28;20472;-64
2023/09/25 00:44:39;;;;;;;6.22;2.20;;;12.80;74.30;;;;;;5089068;28;20048;-64
2023/09/25 00:47:05;;;;;;;4.68;2.55;;;12.80;74.30;;;;;;5069866;28;20101;-64
2023/09/25 00:49:32;;;;;;;4.78;2.33;;;12.80;74.40;;;;;;5069602;28;20119;-64
2023/09/25 00:51:59;;;;;;;5.45;2.25;;;12.80;74.30;;;;;;5069501;28;20048;-64
2023/09/25 00:54:25;;;;;;;3.45;2.00;;;12.80;74.40;;;;;;5069045;28;20044;-64
2023/09/25 00:56:51;;;;;;;6.82;1.90;;;12.80;74.40;;;;;;5068419;28;20119;-64
2023/09/25 00:59:18;;;;;;;4.65;2.42;;;12.70;74.40;;;;;;5068010;28;20041;-64
2023/09/25 01:01:44;;;;;;;6.20;2.35;;;12.70;74.50;;;;;;5067607;28;20082;-64
2023/09/25 01:04:10;;;;;;;3.15;2.30;;;12.70;74.40;;;;;;5068678;28;20075;-64
2023/09/25 01:06:36;;;;;;;3.47;2.20;;;12.70;74.30;;;;;;5069347;28;20102;-64
2023/09/25 01:09:03;;;;;;;5.03;2.33;;;12.70;74.30;;;;;;5079754;28;20044;-64
2023/09/25 01:11:29;;;;;;;4.00;2.30;;;12.70;74.50;;;;;;5072812;28;20448;-64
2023/09/25 01:13:55;;;;;;;4.35;2.10;;;12.70;74.50;;;;;;5076888;28;20044;-64
2023/09/25 01:16:24;;;;;;;5.45;2.70;;;12.60;74.50;;;;;;5069050;28;20047;-64
2023/09/25 01:18:49;;;;;;;4.40;2.10;;;12.60;74.50;;;;;;5080323;28;20524;-65
2023/09/25 01:21:15;;;;;;;4.25;2.42;;;12.60;74.60;;;;;;5089100;28;20177;-65
2023/09/25 01:23:41;;;;;;;7.18;2.40;;;12.50;74.50;;;;;;5085594;28;20384;-65
2023/09/25 01:26:06;;;;;;;5.85;2.65;;;12.50;74.80;;;;;;5089721;28;20074;-65
2023/09/25 01:28:32;;;;;;;4.55;2.90;;;12.50;74.70;;;;;;5095840;28;20123;-65
2023/09/25 01:30:58;;;;;;;4.65;2.55;;;12.50;74.80;;;;;;5088854;28;20120;-65
2023/09/25 01:33:26;;;;;;;4.45;2.50;;;12.50;74.80;;;;;;5088557;28;20616;-65
2023/09/25 01:35:52;;;;;;;6.07;2.40;;;12.50;74.80;;;;;;5091478;28;20043;-65
2023/09/25 01:38:18;;;;;;;5.40;2.50;;;12.50;74.80;;;;;;5081421;28;20520;-65
2023/09/25 01:40:43;;;;;;;6.97;2.70;;;12.50;74.90;;;;;;5088087;28;20165;-65
2023/09/25 01:43:09;;;;;;;5.10;2.92;;;12.40;74.90;;;;;;5092623;28;20040;-65
2023/09/25 01:45:35;;;;;;;4.10;2.67;;;12.40;75.00;;;;;;5090952;28;20113;-65
2023/09/25 01:48:00;;;;;;;5.30;2.70;;;12.30;75.20;;;;;;5092151;28;20068;-65
2023/09/25 01:50:27;;;;;;;6.03;2.70;;;12.30;75.00;;;;;;5092212;28;20347;-65
2023/09/25 01:52:58;;;;;;;4.40;3.00;;;12.30;75.10;;;;;;5091925;28;20104;-65
2023/09/25 01:55:28;;;;;;;4.32;2.72;;;12.30;75.20;;;;;;5091004;28;20052;-65
2023/09/25 01:57:54;;;;;;;6.97;2.65;;;12.20;75.20;;;;;;5091820;28;20091;-65
2023/09/25 02:00:19;;;;;;;4.40;3.03;;;12.20;75.20;;;;;;5091564;28;20136;-66
2023/09/25 02:02:46;;;;;;;8.63;3.13;;;12.20;75.30;;;;;;5091146;28;20071;-65
2023/09/25 02:05:12;;;;;;;8.00;2.88;;;12.20;75.50;;;;;;5091937;28;20040;-65
2023/09/25 02:07:38;;;;;;;6.75;3.35;;;12.10;75.60;;;;;;5084560;28;20070;-65
2023/09/25 02:10:04;;;;;;;4.55;3.00;;;12.10;75.50;;;;;;5079352;28;20137;-65
2023/09/25 02:12:30;;;;;;;9.38;3.55;;;12.00;75.70;;;;;;5072214;28;20045;-65
2023/09/25 02:14:59;;;;;;;5.72;3.38;;;12.00;75.70;;;;;;5071909;28;20050;-65
2023/09/25 02:17:27;;;;;;;5.32;3.20;;;12.00;75.70;;;;;;5092101;28;20056;-65
2023/09/25 02:19:54;;;;;;;4.80;3.13;;;11.90;75.80;;;;;;5091272;28;20492;-65
2023/09/25 02:22:20;;;;;;;6.68;3.28;;;11.90;75.80;;;;;;5079421;28;20048;-65
2023/09/25 02:24:45;;;;;;;4.60;2.95;;;11.90;76.00;;;;;;5103651;28;20059;-65
2023/09/25 02:27:11;;;;;;;6.05;3.15;;;11.90;76.10;;;;;;5090373;28;20040;-65
2023/09/25 02:29:37;;;;;;;7.63;3.30;;;11.90;76.20;;;;;;5084893;28;20043;-65
2023/09/25 02:32:02;;;;;;;5.57;3.22;;;11.90;76.20;;;;;;5091409;28;20035;-66
2023/09/25 02:34:28;;;;;;;5.07;3.53;;;11.90;76.20;;;;;;5085986;28;20080;-65
2023/09/25 02:36:54;;;;;;;6.60;3.97;;;11.80;76.30;;;;;;5070772;28;20099;-65
2023/09/25 02:39:19;;;;;;;8.63;3.13;;;11.70;76.40;;;;;;5083322;28;20048;-65
2023/09/25 02:41:45;;;;;;;5.22;3.90;;;11.70;76.30;;;;;;5085672;28;20532;-65
2023/09/25 02:44:11;;;;;;;5.80;3.63;;;11.70;76.40;;;;;;5089885;28;20087;-65
2023/09/25 02:46:36;;;;;;;6.63;3.60;;;11.70;76.50;;;;;;5075367;28;20041;-66
2023/09/25 02:49:03;;;;;;;7.15;3.63;;;11.70;76.50;;;;;;5071059;28;20051;-65
2023/09/25 02:51:28;;;;;;;6.65;3.75;;;11.70;76.60;;;;;;5071026;28;20180;-65
2023/09/25 02:53:54;;;;;;;5.28;3.80;;;11.70;76.50;;;;;;5075341;28;20040;-65
2023/09/25 02:56:20;;;;;;;6.85;3.42;;;11.70;76.60;;;;;;5073177;28;20123;-65
2023/09/25 02:58:46;;;;;;;5.13;3.60;;;11.70;76.60;;;;;;5088836;28;20499;-65
2023/09/25 03:01:12;;;;;;;4.10;3.40;;;11.70;76.60;;;;;;5090376;28;20077;-65
2023/09/25 03:03:39;;;;;;;4.82;3.30;;;11.70;76.60;;;;;;5076881;28;20067;-65
2023/09/25 03:06:04;;;;;;;7.10;3.40;;;11.70;76.60;;;;;;5090808;28;20042;-65
2023/09/25 03:08:30;;;;;;;6.45;3.42;;;11.70;76.70;;;;;;5076160;28;20115;-65
2023/09/25 03:10:56;;;;;;;5.85;3.45;;;11.70;76.70;;;;;;5090763;28;20543;-66
2023/09/25 03:13:21;;;;;;;4.13;3.33;;;11.60;76.80;;;;;;5070723;28;20452;-64
2023/09/25 03:15:47;;;;;;;6.00;3.50;;;11.60;76.90;;;;;;5070303;28;20142;-66
2023/09/25 03:18:13;;;;;;;8.02;3.63;;;11.50;76.90;;;;;;5070247;28;20124;-65
2023/09/25 03:20:39;;;;;;;5.25;3.47;;;11.50;76.80;;;;;;5092471;28;20823;-66
2023/09/25 03:23:04;;;;;;;6.43;3.65;;;11.50;76.80;;;;;;5083118;28;20405;-65
2023/09/25 03:25:37;;;;;;;5.15;3.70;;;11.50;76.80;;;;;;5070385;28;20043;-65
2023/09/25 03:28:03;;;;;;;6.43;3.58;;;11.50;76.70;;;;;;5077861;28;20043;-66
2023/09/25 03:30:29;;;;;;;5.55;3.75;;;11.50;76.80;;;;;;5089576;28;20044;-65
2023/09/25 03:32:55;;;;;;;4.05;3.47;;;11.50;76.80;;;;;;5089857;28;20040;-66
2023/09/25 03:35:22;;;;;;;5.57;3.40;;;11.50;76.80;;;;;;5090690;28;20055;-66
2023/09/25 03:37:47;;;;;;;5.93;3.40;;;11.50;76.80;;;;;;5087176;28;20494;-65
2023/09/25 03:40:13;;;;;;;7.00;3.60;;;11.50;76.70;;;;;;5086355;28;20052;-65
2023/09/25 03:42:42;;;;;;;5.72;3.85;;;11.50;76.80;;;;;;5086890;28;20794;-65
2023/09/25 03:45:09;;;;;;;5.97;3.22;;;11.50;76.80;;;;;;5086188;28;20549;-64
2023/09/25 03:47:35;;;;;;;7.30;4.10;;;11.50;76.90;;;;;;5070873;28;20048;-66
2023/09/25 03:50:04;;;;;;;5.63;4.05;;;11.50;76.80;;;;;;5088582;28;20359;-66
2023/09/25 03:52:30;;;;;;;7.28;3.58;;;11.50;77.00;;;;;;5070304;28;20116;-65
2023/09/25 03:54:56;;;;;;;6.70;4.10;;;11.50;76.90;;;;;;5086323;28;20095;-65
2023/09/25 03:57:22;;;;;;;8.20;3.75;;;11.50;76.80;;;;;;5088728;28;20072;-66
2023/09/25 03:59:47;;;;;;;9.32;3.38;;;11.50;76.80;;;;;;5089211;28;20058;-65
2023/09/25 04:02:13;;;;;;;6.45;4.00;;;11.50;76.80;;;;;;5089470;28;20535;-65
2023/09/25 04:04:39;;;;;;;3.83;3.33;;;11.50;76.80;;;;;;5075196;28;20040;-65
2023/09/25 04:07:04;;;;;;;4.50;3.20;;;11.50;76.80;;;;;;5069958;28;20079;-65
2023/09/25 04:09:30;;;;;;;7.65;3.78;;;11.50;76.80;;;;;;5076929;28;20115;-65
2023/09/25 04:11:57;;;;;;;8.02;3.75;;;11.50;76.80;;;;;;5069584;28;20057;-65
2023/09/25 04:14:23;;;;;;;5.50;3.75;;;11.50;76.70;;;;;;5069363;28;20041;-65
2023/09/25 04:16:49;;;;;;;5.28;3.72;;;11.50;76.60;;;;;;5094253;28;20051;-65
2023/09/25 04:19:15;;;;;;;4.55;3.70;;;11.50;76.50;;;;;;5088918;28;20063;-65
2023/09/25 04:21:42;;;;;;;6.25;3.40;;;11.50;76.70;;;;;;5089655;28;20097;-65
2023/09/25 04:24:10;;;;;;;7.40;3.22;;;11.50;76.60;;;;;;5068838;28;20246;-66
2023/09/25 04:26:39;;;;;;;6.40;3.80;;;11.50;76.50;;;;;;5069770;28;20044;-65
2023/09/25 04:29:05;;;;;;;5.25;3.55;;;11.50;76.50;;;;;;5068696;28;20048;-65
2023/09/25 04:31:31;;;;;;;6.38;3.53;;;11.50;76.50;;;;;;5069945;28;20036;-65
2023/09/25 04:33:57;;;;;;;5.32;3.20;;;11.50;76.40;;;;;;5082304;28;20048;-65
2023/09/25 04:36:23;;;;;;;6.43;3.40;;;11.60;76.50;;;;;;5068930;28;20390;-65
2023/09/25 04:38:49;;;;;;;5.47;3.17;;;11.60;76.60;;;;;;5069232;28;20049;-65
2023/09/25 04:41:15;;;;;;;6.75;3.58;;;11.60;76.40;;;;;;5080136;28;20113;-65
2023/09/25 04:43:41;;;;;;;4.30;3.50;;;11.60;76.20;;;;;;5088951;28;20048;-65
2023/09/25 04:46:06;;;;;;;4.78;3.70;;;11.60;76.30;;;;;;5077027;28;20055;-65
2023/09/25 04:48:32;;;;;;;6.10;3.13;;;11.70;76.20;;;;;;5082475;28;20123;-65
2023/09/25 04:50:57;;;;;;;6.50;3.45;;;11.70;76.10;;;;;;5086557;28;20128;-65
2023/09/25 04:53:23;;;;;;;7.68;4.85;;;11.70;76.10;;;;;;5083823;28;20119;-65
2023/09/25 04:55:49;;;;;;;7.75;3.35;;;11.70;76.20;;;;;;5089580;28;20058;-65
2023/09/25 04:58:15;;;;;;;5.05;3.75;;;11.70;76.10;;;;;;5088075;28;20044;-65
2023/09/25 05:00:41;;;;;;;5.63;3.50;;;11.70;76.10;;;;;;5088460;28;20055;-65
2023/09/25 05:03:07;;;;;;;7.53;4.55;;;11.70;76.00;;;;;;5081851;28;20040;-65
2023/09/25 05:05:33;;;;;;;5.43;3.33;;;11.70;76.00;;;;;;5084687;28;20040;-65
2023/09/25 05:07:59;;;;;;;8.70;3.80;;;11.70;76.10;;;;;;5071241;28;20153;-65
2023/09/25 05:10:29;;;;;;;5.40;4.68;;;11.70;76.10;;;;;;5078471;28;20052;-66
2023/09/25 05:12:56;;;;;;;8.98;3.97;;;11.70;76.20;;;;;;5090061;28;20052;-66
2023/09/25 05:15:22;;;;;;;5.75;4.85;;;11.70;76.20;;;;;;5092081;28;20080;-65
2023/09/25 05:17:48;;;;;;;5.30;3.97;;;11.70;76.10;;;;;;5085807;28;20126;-65
2023/09/25 05:20:18;;;;;;;7.00;5.70;;;11.70;76.20;;;;;;5086198;28;20502;-65
2023/09/25 05:22:46;;;;;;;6.80;3.80;;;11.70;76.30;;;;;;5091042;28;20042;-65
2023/09/25 05:25:13;;;;;;;7.18;4.07;;;11.70;76.20;;;;;;5080163;28;20386;-65
2023/09/25 05:27:40;;;;;;;8.13;4.28;;;11.70;76.20;;;;;;5072094;28;20674;-65
2023/09/25 05:30:09;;;;;;;6.88;4.28;;;11.70;76.20;;;;;;5084812;28;20040;-66
2023/09/25 05:32:39;;;;;;;5.82;4.18;;;11.60;76.20;;;;;;5092651;28;20056;-65
2023/09/25 05:35:06;;;;;;;11.73;6.90;;;11.60;76.20;;;;;;5092424;28;20048;-65
2023/09/25 05:37:33;;;;;;;6.38;3.63;;;11.60;76.40;;;;;;5092900;28;20318;-65
2023/09/25 05:39:59;;;;;;;6.45;4.50;;;11.60;76.20;;;;;;5090381;28;20091;-65
2023/09/25 05:42:24;;;;;;;7.53;4.82;;;11.60;76.30;;;;;;5091213;28;20130;-66
2023/09/25 05:44:50;;;;;;;9.00;4.88;;;11.60;76.40;;;;;;5091514;28;20601;-65
2023/09/25 05:47:17;;;;;;;7.72;3.80;;;11.50;76.50;;;;;;5076647;28;20058;-65
2023/09/25 05:49:43;;;;;;;6.07;4.18;;;11.50;76.40;;;;;;5073756;28;20048;-65
2023/09/25 05:52:08;;;;;;;7.22;4.60;;;11.50;76.60;;;;;;5070645;28;20040;-65
2023/09/25 05:54:34;;;;;;;8.05;4.15;;;11.50;76.50;;;;;;5075447;28;20041;-65
2023/09/25 05:57:00;;;;;;;6.85;4.65;;;11.50;76.50;;;;;;5082553;28;20032;-66
2023/09/25 05:59:26;;;;;;;5.55;3.80;;;11.60;76.50;;;;;;5084259;28;20052;-66
2023/09/25 06:01:52;;;;;;;8.20;3.78;;;11.60;76.50;;;;;;5081841;28;20279;-65
2023/09/25 06:04:18;;;;;;;5.55;4.05;;;11.60;76.40;;;;;;5079418;28;20177;-65
2023/09/25 06:06:44;;;;;;;6.75;3.75;;;11.70;76.30;;;;;;5083496;28;20407;-65
2023/09/25 06:09:15;;;;;;;6.28;3.35;;;11.70;76.40;;;;;;5087768;28;20050;-65
2023/09/25 06:11:41;;;;;;;8.65;4.03;;;11.70;76.40;;;;;;5084350;28;20040;-65
2023/09/25 06:14:09;;;;;;;7.78;3.88;;;11.70;76.30;;;;;;5080530;28;20466;-65
2023/09/25 06:16:36;;;;;;;6.68;3.75;;;11.70;76.20;;;;;;5082963;28;20169;-64
2023/09/25 06:19:03;;;;;;;9.27;4.28;;;11.70;76.50;;;;;;5077142;28;20048;-66
2023/09/25 06:21:30;;;;;;;5.03;3.60;;;11.70;76.50;;;;;;5074469;28;20080;-65
2023/09/25 06:23:56;;;;;;;6.95;3.03;;;11.80;76.20;;;;;;5078634;28;20052;-65
2023/09/25 06:26:23;;;;;;;6.28;3.95;;;11.80;76.10;;;;;;5075641;28;20047;-65
2023/09/25 06:28:50;;;;;;;7.47;4.15;;;11.90;76.10;;;;;;5079960;28;20048;-65
2023/09/25 06:31:17;;;;;;;5.43;3.40;;;11.90;76.20;;;;;;5083439;28;20559;-65
2023/09/25 06:33:42;;;;;;;7.13;3.20;;;11.90;76.00;;;;;;5084266;28;20420;-65
2023/09/25 06:36:08;;;;;;;6.32;3.17;;;11.90;75.80;;;;;;5086076;28;20036;-65
2023/09/25 06:38:37;;;;;;;5.75;3.40;;;11.90;75.90;;;;;;5088494;28;20040;-66
2023/09/25 06:41:03;;;;;;;4.70;3.15;;;11.90;75.70;;;;;;5087496;28;20052;-65
2023/09/25 06:43:28;;;;;;;4.32;3.35;;;12.00;75.50;;;;;;5086632;28;20044;-65
2023/09/25 06:45:54;;;;;;;4.53;2.90;;;12.00;75.70;;;;;;5082149;28;20153;-65
2023/09/25 06:48:21;;;;;;;8.57;3.55;;;12.00;75.60;;;;;;5084453;28;20059;-65
2023/09/25 06:50:46;;;;;;;6.20;2.80;;;12.10;75.50;;;;;;5082958;28;20047;-65
2023/09/25 06:53:12;;;;;;;5.60;2.92;;;12.10;75.50;;;;;;5081906;28;20357;-65
2023/09/25 06:55:39;;;;;;;5.28;2.90;;;12.10;75.50;;;;;;5074252;28;20519;-65
2023/09/25 06:58:05;;;;;;;4.43;3.05;;;12.20;75.40;;;;;;5075437;28;20047;-64
2023/09/25 07:00:31;;;;;;;5.60;3.10;;;12.20;75.10;;;;;;5073658;28;20115;-65
2023/09/25 07:02:56;;;;;;;3.80;2.55;;;12.20;74.80;;;;;;5081644;28;20123;-65
2023/09/25 07:05:22;;;;;;;3.42;2.45;;;12.20;74.90;;;;;;5092640;28;20112;-65
2023/09/25 07:07:50;;;;;;;5.35;2.85;;;12.30;74.70;;;;;;5090645;28;20043;-65
2023/09/25 07:10:16;;;;;;;4.05;2.65;;;12.30;74.60;;;;;;5088679;28;20044;-65
2023/09/25 07:12:42;;;;;;;5.88;2.72;;;12.40;74.70;;;;;;5083143;28;20082;-65
2023/09/25 07:15:08;;;;;;;4.82;2.40;;;12.40;74.80;;;;;;5073260;28;20094;-65
2023/09/25 07:17:34;;;;;;;4.60;2.55;;;12.50;74.40;;;;;;5084288;28;20032;-65
2023/09/25 07:20:00;;;;;;;6.22;2.63;;;12.50;74.10;;;;;;5089625;28;20186;-65
2023/09/25 07:22:28;;;;;;;5.05;2.65;;;12.50;74.10;;;;;;5083000;28;20051;-65
2023/09/25 07:24:54;;;;;;;4.28;2.80;;;12.50;74.30;;;;;;5069329;28;20040;-65
2023/09/25 07:27:20;;;;;;;3.58;2.50;;;12.60;74.10;;;;;;5069797;28;20040;-65
2023/09/25 07:29:47;;;;;;;4.35;2.80;;;12.70;74.20;;;;;;5069863;28;20040;-66
2023/09/25 07:32:14;;;;;;;5.80;2.70;;;12.70;73.90;;;;;;5073537;28;20443;-65
2023/09/25 07:34:42;;;;;;;7.15;2.42;;;12.80;74.20;;;;;;5082203;28;20091;-65
2023/09/25 07:37:08;;;;;;;5.88;2.80;;;12.80;73.80;;;;;;5069630;28;20110;-65
2023/09/25 07:39:38;;;;;;;4.05;2.42;;;12.90;74.00;;;;;;5089718;28;20384;-66
2023/09/25 07:42:04;;;;;;;4.20;2.38;;;12.90;74.20;;;;;;5088538;28;20048;-65
2023/09/25 07:44:33;;;;;;;3.85;2.30;;;13.00;73.60;;;;;;5080838;28;20048;-65
2023/09/25 07:47:00;;;;;;;6.55;2.35;;;13.00;73.70;;;;;;5071861;28;20048;-66
2023/09/25 07:49:29;;;;;;;4.65;2.20;;;13.10;73.50;;;;;;5077970;28;20056;-65
2023/09/25 07:51:54;;;;;;;4.22;2.05;;;13.10;73.70;;;;;;5080111;28;20394;-65
2023/09/25 07:54:20;;;;;;;3.55;2.05;;;13.10;73.20;;;;;;5084050;28;20040;-65
2023/09/25 07:56:47;;;;;;;4.07;2.17;;;13.10;73.20;;;;;;5083011;28;20051;-66
2023/09/25 07:59:16;;;;;;;3.70;2.25;;;13.10;73.10;;;;;;5072107;28;20367;-65
2023/09/25 08:01:42;;;;;;;3.33;2.15;;;13.20;73.00;;;;;;5077455;28;20049;-65
2023/09/25 08:04:08;;;;;;;6.22;2.15;;;13.30;72.70;;;;;;5067530;28;20047;-65
2023/09/25 08:06:34;;;;;;;7.55;2.35;;;13.30;72.70;;;;;;5070833;28;20047;-65
2023/09/25 08:08:59;;;;;;;3.90;1.92;;;13.30;72.50;;;;;;5083819;28;20032;-65
2023/09/25 08:11:26;;;;;;;4.30;2.42;;;13.40;72.60;;;;;;5066515;28;20336;-66
2023/09/25 08:13:53;;;;;;;4.38;2.30;;;13.50;72.60;;;;;;5081595;28;20562;-65
2023/09/25 08:16:22;;;;;;;3.13;1.95;;;13.50;72.90;;;;;;5055574;28;20053;-65
2023/09/25 08:18:48;;;;;;;4.50;2.33;;;13.50;72.50;;;;;;5084665;28;20079;-66
2023/09/25 08:21:14;;;;;;;3.22;2.10;;;13.50;72.80;;;;;;5073030;28;20420;-65
2023/09/25 08:23:39;;;;;;;4.95;1.90;;;13.60;72.70;;;;;;5080848;28;20058;-65
2023/09/25 08:26:05;;;;;;;4.03;2.30;;;13.60;72.40;;;;;;5068445;28;20051;-65
2023/09/25 08:28:32;;;;;;;3.38;2.00;;;13.70;72.40;;;;;;5068283;28;20053;-65
2023/09/25 08:30:58;;;;;;;5.82;2.10;;;13.70;72.50;;;;;;5085922;28;20448;-65
2023/09/25 08:33:23;;;;;;;4.65;2.35;;;13.90;72.50;;;;;;5081275;28;20050;-65
2023/09/25 08:35:49;;;;;;;7.22;2.63;;;13.90;72.50;;;;;;5070774;28;20052;-66
2023/09/25 08:38:15;;;;;;;3.60;2.67;;;14.00;72.20;;;;;;5077574;28;20719;-65
2023/09/25 08:40:47;;;;;;;5.25;2.10;;;14.10;72.30;;;;;;5087757;28;20129;-65
2023/09/25 08:43:14;;;;;;;3.58;2.30;;;14.10;72.10;;;;;;5089826;28;20044;-65
2023/09/25 08:45:43;;;;;;;5.80;2.60;;;14.20;72.00;;;;;;5087512;28;20459;-65
2023/09/25 08:48:13;;;;;;;4.15;2.20;;;14.30;72.00;;;;;;5071482;28;20036;-65
2023/09/25 08:50:40;;;;;;;5.80;2.17;;;14.30;72.30;;;;;;5089941;28;20546;-65
2023/09/25 08:53:06;;;;;;;3.60;2.20;;;14.40;71.90;;;;;;5086690;28;20462;-66
2023/09/25 08:55:33;;;;;;;3.65;2.20;;;14.50;71.80;;;;;;5090413;28;20355;-65
2023/09/25 08:58:00;;;;;;;5.47;2.30;;;14.60;71.80;;;;;;5092150;28;20052;-65
2023/09/25 09:00:29;;;;;;;5.15;2.15;;;14.70;71.40;;;;;;5088434;28;21259;-65
2023/09/25 09:02:54;;;;;;;4.53;2.63;;;14.70;71.00;;;;;;5092226;28;20050;-65
2023/09/25 09:05:20;;;;;;;4.93;1.80;;;14.80;70.50;;;;;;5084885;28;20044;-65
2023/09/25 09:08:03;;;;;;;4.05;2.05;;;14.80;70.70;;;;;;5071331;28;20036;-65
2023/09/25 09:10:33;;;;;;;5.15;2.10;;;14.90;71.20;;;;;;5087157;28;20044;-65
2023/09/25 09:12:59;;;;;;;3.47;2.13;;;15.00;71.00;;;;;;5084338;28;20458;-66
2023/09/25 09:15:30;;;;;;;4.45;2.13;;;15.00;70.90;;;;;;5092031;28;20048;-66
2023/09/25 09:17:56;;;;;;;3.30;1.75;;;15.00;71.00;;;;;;5091740;28;20052;-65
2023/09/25 09:20:35;;;;;;;3.95;2.10;;;15.20;70.90;;;;;;5091071;28;20492;-65
2023/09/25 09:23:00;;;;;;;4.97;1.90;;;15.30;70.80;;;;;;5084399;28;20438;-65
2023/09/25 09:25:27;;;;;;;5.60;1.92;;;15.40;71.00;;;;;;5074715;28;20198;-65
2023/09/25 09:27:53;;;;;;;6.30;2.80;;;15.40;70.20;;;;;;5084653;28;20113;-65
2023/09/25 09:30:24;;;;;;;4.63;2.28;;;15.50;70.10;;;;;;5078628;28;20484;-66
2023/09/25 09:32:51;;;;;;;6.28;2.97;;;15.50;69.70;;;;;;5078943;28;20036;-66
2023/09/25 09:35:27;;;;;;;4.85;2.40;;;15.60;69.70;;;;;;5075347;28;20056;-65
2023/09/25 09:37:54;;;;;;;4.95;2.33;;;15.60;69.80;;;;;;5088188;28;20535;-66
2023/09/25 09:40:27;;;;;;;4.22;2.28;;;15.70;70.00;;;;;;5091092;28;20060;-66
2023/09/25 09:42:53;;;;;;;4.28;2.60;;;15.80;70.10;;;;;;5078877;28;20119;-66
2023/09/25 09:45:20;;;;;;;5.75;2.30;;;16.00;69.50;;;;;;5086042;28;20119;-66
2023/09/25 09:47:49;;;;;;;4.38;2.33;;;16.00;69.50;;;;;;5070713;28;20044;-65
2023/09/25 09:50:34;;;;;;;3.50;2.03;;;16.10;69.80;;;;;;5071077;28;20044;-66
2023/09/25 09:52:59;;;;;;;4.00;1.92;;;16.10;69.20;;;;;;5081560;28;20070;-66
2023/09/25 09:55:31;;;;;;;5.10;2.75;;;16.20;69.30;;;;;;5089796;28;20386;-66
2023/09/25 09:57:57;;;;;;;8.57;3.08;;;16.30;69.00;;;;;;5090639;28;20101;-65
2023/09/25 10:00:23;;;;;;;5.43;2.80;;;16.30;68.70;;;;;;5090597;28;20044;-66
2023/09/25 10:02:49;;;;;;;5.05;2.50;;;16.40;68.70;;;;;;5079250;28;20044;-65
2023/09/25 10:05:17;;;;;;;4.10;2.60;;;16.40;68.80;;;;;;5077354;28;20512;-65
2023/09/25 10:08:10;;;;;;;6.55;2.80;;;16.60;68.80;;;;;;5090870;28;20051;-65
2023/09/25 10:10:43;;;;;;;3.08;2.00;;;16.70;67.20;;;;;;5073331;28;20045;-65
2023/09/25 10:13:22;;;;;;;5.50;2.20;;;16.80;68.00;;;;;;5081544;28;20520;-65
2023/09/25 10:16:01;;;;;;;3.83;2.20;;;17.00;66.50;;;;;;5090544;28;20124;-65
2023/09/25 10:18:30;;;;;;;4.38;2.15;;;17.00;67.40;;;;;;5089662;28;20055;-65
2023/09/25 10:21:14;;;;;;;5.55;2.55;;;17.20;67.50;;;;;;5089889;28;20071;-65
2023/09/25 10:23:46;;;;;;;4.75;2.40;;;17.20;67.30;;;;;;5077901;28;20052;-65
2023/09/25 10:26:24;;;;;;;5.18;2.25;;;17.30;66.70;;;;;;5071542;28;20127;-66
2023/09/25 10:28:58;;;;;;;3.50;2.00;;;17.40;66.60;;;;;;5083249;28;21702;-64
2023/09/25 10:31:29;;;;;;;4.40;2.25;;;17.40;66.30;;;;;;5078776;28;20048;-65
2023/09/25 10:34:04;;;;;;;3.40;2.00;;;17.50;66.90;;;;;;5076530;28;20086;-65
2023/09/25 10:36:50;;;;;;;4.80;2.50;;;17.50;67.10;;;;;;5069832;28;20119;-65
2023/09/25 10:39:17;;;;;;;3.45;1.80;;;17.50;65.90;;;;;;5071122;28;20058;-65
2023/09/25 10:41:47;;;;;;;5.47;2.10;;;17.50;67.00;;;;;;5084959;28;20055;-65
2023/09/25 10:44:14;;;;;;;3.95;1.73;;;17.60;67.20;;;;;;5089847;28;20564;-65
2023/09/25 10:46:40;;;;;;;6.38;2.42;;;17.70;67.00;;;;;;5079204;28;20579;-65
2023/09/25 10:49:09;;;;;;;3.88;1.70;;;17.80;66.90;;;;;;5075040;28;20051;-65
2023/09/25 10:51:35;;;;;;;14.48;2.00;;;17.80;66.30;;;;;;5075603;28;20052;-66
2023/09/25 10:54:02;;;;;;;3.63;1.98;;;17.80;66.30;;;;;;5069779;28;20103;-65
2023/09/25 10:56:28;;;;;;;3.65;1.98;;;17.80;66.30;;;;;;5067946;28;20094;-65
2023/09/25 10:58:55;;;;;;;4.03;2.28;;;17.80;66.50;;;;;;5080486;28;20439;-65
2023/09/25 11:01:27;;;;;;;6.78;2.22;;;17.90;66.60;;;;;;5089417;28;20052;-65
2023/09/25 11:03:53;;;;;;;5.88;2.25;;;18.00;66.50;;;;;;5089938;28;20044;-66
2023/09/25 11:06:19;;;;;;;4.28;1.92;;;18.10;66.50;;;;;;5088845;28;20040;-65
2023/09/25 11:08:44;;;;;;;3.78;2.30;;;18.10;66.10;;;;;;5088793;28;20491;-65
2023/09/25 11:11:14;;;;;;;5.45;2.08;;;18.20;66.20;;;;;;5068615;28;20044;-64
2023/09/25 11:13:40;;;;;;;8.07;2.30;;;18.30;65.60;;;;;;5075315;28;20056;-65
2023/09/25 11:16:06;;;;;;;4.20;2.00;;;18.40;66.00;;;;;;5071770;28;20049;-65
2023/09/25 11:18:32;;;;;;;5.85;2.13;;;18.40;65.90;;;;;;5089601;28;20051;-65
2023/09/25 11:20:57;;;;;;;4.72;2.20;;;18.50;65.80;;;;;;5089039;28;20048;-65
2023/09/25 11:23:24;;;;;;;5.32;2.03;;;18.60;66.20;;;;;;5086935;28;20108;-65
2023/09/25 11:25:52;;;;;;;4.20;2.13;;;18.60;65.40;;;;;;5081603;28;20627;-65
2023/09/25 11:28:24;;;;;;;5.53;2.25;;;18.60;65.40;;;;;;5075031;28;20083;-66
2023/09/25 11:30:50;;;;;;;4.47;2.25;;;18.60;65.90;;;;;;5075698;28;20044;-65
2023/09/25 11:33:21;;;;;;;8.02;1.90;;;18.70;66.00;;;;;;5080989;28;20119;-65
2023/09/25 11:35:49;;;;;;;3.75;1.90;;;18.70;66.00;;;;;;5072839;28;20056;-65
2023/09/25 11:38:21;;;;;;;6.28;1.90;;;18.70;65.80;;;;;;5067920;28;20572;-65
2023/09/25 11:40:50;;;;;;;5.95;2.38;;;18.70;65.50;;;;;;5076087;28;20363;-65
2023/09/25 11:43:16;;;;;;;5.05;2.08;;;18.60;65.70;;;;;;5088344;28;20454;-65
2023/09/25 11:45:42;;;;;;;3.40;1.67;;;18.60;65.90;;;;;;5088840;28;20414;-65
2023/09/25 11:48:09;;;;;;;6.80;2.08;;;18.70;65.90;;;;;;5088664;28;20050;-65
2023/09/25 11:50:35;;;;;;;6.35;1.95;;;18.80;66.10;;;;;;5088605;28;20501;-65
2023/09/25 11:53:01;;;;;;;3.88;1.85;;;18.80;65.20;;;;;;5089122;28;20217;-65
2023/09/25 11:55:27;;;;;;;2.53;1.60;;;18.70;65.20;;;;;;5089187;28;20044;-65
2023/09/25 11:57:53;;;;;;;3.05;1.75;;;18.70;65.10;;;;;;5088601;28;20048;-65
2023/09/25 12:00:18;;;;;;;4.88;2.38;;;18.70;65.70;;;;;;5088561;28;20055;-65
2023/09/25 12:02:46;;;;;;;5.10;1.85;;;18.60;65.50;;;;;;5088083;28;20059;-65
2023/09/25 12:05:12;;;;;;;4.28;2.00;;;18.60;65.90;;;;;;5075442;28;20071;-65
2023/09/25 12:07:38;;;;;;;4.18;1.92;;;18.70;66.20;;;;;;5088803;28;20055;-65
2023/09/25 12:10:08;;;;;;;4.03;2.05;;;18.60;65.70;;;;;;5082688;28;20044;-65
2023/09/25 12:12:38;;;;;;;7.32;2.33;;;18.60;65.20;;;;;;5082632;28;20260;-65
2023/09/25 12:15:08;;;;;;;4.50;1.98;;;18.50;65.30;;;;;;5068401;28;20106;-64
2023/09/25 12:17:37;;;;;;;4.35;2.05;;;18.50;65.40;;;;;;5081226;28;20405;-66
2023/09/25 12:20:11;;;;;;;5.47;2.05;;;18.60;65.70;;;;;;5068018;28;20528;-65
2023/09/25 12:22:41;;;;;;;7.13;2.20;;;18.70;65.90;;;;;;5083699;28;20119;-65
2023/09/25 12:25:09;;;;;;;4.38;2.00;;;18.70;65.90;;;;;;5077567;28;20115;-65
2023/09/25 12:27:36;;;;;;;4.43;1.80;;;18.70;65.70;;;;;;5068116;28;20040;-65
2023/09/25 12:30:02;;;;;;;4.22;1.80;;;18.80;65.70;;;;;;5068392;28;20056;-65
2023/09/25 12:32:27;;;;;;;3.95;1.90;;;18.80;65.90;;;;;;5069507;28;20181;-66
2023/09/25 12:34:53;;;;;;;5.18;1.98;;;18.90;66.00;;;;;;5079990;28;20128;-65
2023/09/25 12:37:19;;;;;;;4.57;2.13;;;18.90;66.20;;;;;;5069176;28;20076;-64
2023/09/25 12:39:44;;;;;;;3.50;1.80;;;19.00;66.10;;;;;;5088027;28;20055;-65
2023/09/25 12:42:10;;;;;;;3.38;1.88;;;19.00;66.20;;;;;;5095048;28;20063;-65
2023/09/25 12:44:36;;;;;;;3.63;2.00;;;19.00;66.00;;;;;;5088137;28;20082;-65
2023/09/25 12:47:02;;;;;;;6.57;1.88;;;19.00;66.70;;;;;;5087462;28;20135;-65